Aviation Digital Data Service (ADDS)

Output produced by METARs form (1804 UTC 19 October 2017)
found at http://www.aviationweather.gov/adds/metars/
 
MNBL 191700Z 02004KT 9999 FEW017CB SCT060 27/25 Q1011 CB/N/NW
MNBL 191520Z 1918/2018 11012KT 9999 FEW016CB SCT070 
     TEMPO 1920/2002 6000 TSRA SCT016CB 
     BECMG 2004/2006 08006KT SCT016 SCT070 
     TEMPO 2003/2009 8000 -RA
       
MNMG 191800Z 07010KT 9999 FEW024 SCT070 30/25 Q1009 A2982 2CI300 NOSIG
MNMG 191520Z 1918/2018 14014KT 9999 FEW020CB SCT070 
     TEMPO 1921/2002 7000 -TSRA SCT020CB 
     BECMG 2003/2005 12008KT 9999 SCT020 SCT300
       
MNPC 191700Z 08008KT 6000 VCRA BKN016TCU 32/27 Q1010 TCURA/SE/S/SW
MNPC 191520Z 1918/2018 09012KT 9999 BKN016 
     TEMPO 1920/2001 7000 VCRA/-RA BKN018 
     BECMG 2002/2004 08006KT SCT016 SCT070